createdAt,value
2018-11-23T07:48:48.313Z,-1.80
2018-11-23T07:51:16.727Z,-1.90
2018-11-23T07:53:45.167Z,-1.80
2018-11-23T07:56:13.769Z,-1.70
2018-11-23T07:58:42.182Z,-1.80
2018-11-23T08:01:10.617Z,-1.70
2018-11-23T08:03:39.012Z,-1.70
2018-11-23T08:06:07.442Z,-1.70
2018-11-23T08:08:35.937Z,-1.70
2018-11-23T08:11:07.325Z,-1.60
2018-11-23T08:13:36.277Z,-1.70
2018-11-23T08:16:04.733Z,-1.60
2018-11-23T08:18:33.137Z,-1.50
2018-11-23T08:21:01.567Z,-1.50
2018-11-23T08:23:30.004Z,-1.50
2018-11-23T08:25:58.461Z,-1.50
2018-11-23T08:28:26.996Z,-1.30
2018-11-23T08:30:55.561Z,-1.40
2018-11-23T08:33:23.966Z,-1.30
2018-11-23T08:35:52.395Z,-1.20
2018-11-23T08:38:20.862Z,-1.20
2018-11-23T08:40:49.250Z,-1.20
2018-11-23T08:43:17.665Z,-1.20
2018-11-23T08:45:46.139Z,-1.20
2018-11-23T08:48:14.591Z,-1.20
2018-11-23T08:50:42.982Z,-1.30
2018-11-23T08:53:11.473Z,-1.30
2018-11-23T08:55:39.969Z,-1.30
2018-11-23T08:58:08.380Z,-1.30
2018-11-23T09:00:36.831Z,-1.20
2018-11-23T09:03:05.623Z,-1.30
2018-11-23T09:05:34.157Z,-1.20
2018-11-23T09:08:02.553Z,-1.20
2018-11-23T09:10:31.559Z,-1.20
2018-11-23T09:13:01.661Z,-1.10
2018-11-23T09:15:30.061Z,-1.20
2018-11-23T09:17:58.649Z,-1.10
2018-11-23T09:20:27.201Z,-1.10
2018-11-23T09:22:55.629Z,-1.20
2018-11-23T09:25:24.566Z,-1.20
2018-11-23T09:27:53.303Z,-1.30
2018-11-23T09:30:23.206Z,-1.20
2018-11-23T09:32:52.472Z,-1.10
2018-11-23T09:35:21.105Z,-1.00
2018-11-23T09:37:49.932Z,-0.90
2018-11-23T09:40:22.810Z,-0.90
2018-11-23T09:42:51.556Z,-0.90
2018-11-23T09:45:21.367Z,-0.90
2018-11-23T09:47:50.944Z,-0.80
2018-11-23T09:50:20.692Z,-0.70
2018-11-23T09:52:50.469Z,-0.80
2018-11-23T09:55:19.477Z,-0.70
2018-11-23T09:57:47.921Z,-0.80
2018-11-23T10:00:19.404Z,-0.80
2018-11-23T10:02:48.762Z,-0.80
2018-11-23T10:05:17.774Z,-0.80
2018-11-23T10:07:47.489Z,-0.70
2018-11-23T10:10:16.701Z,-0.60
2018-11-23T10:12:45.352Z,-0.50
2018-11-23T10:15:15.088Z,-0.40
2018-11-23T10:17:43.642Z,-0.40
2018-11-23T10:20:14.140Z,-0.20
2018-11-23T10:22:42.868Z,-0.30
2018-11-23T10:25:12.687Z,-0.20
2018-11-23T10:27:41.674Z,-0.10
2018-11-23T10:30:14.549Z,-0.20
2018-11-23T10:32:43.237Z,-0.20
2018-11-23T10:35:12.103Z,-0.10
2018-11-23T10:37:41.548Z,-0.10
2018-11-23T10:40:12.480Z,-0.10
2018-11-23T10:42:41.046Z,-0.10
2018-11-23T10:45:15.157Z,0.00
2018-11-23T10:47:43.784Z,0.00
2018-11-23T10:50:14.581Z,0.10
2018-11-23T10:52:43.048Z,0.00
2018-11-23T10:55:13.994Z,0.10
2018-11-23T10:57:42.464Z,0.10
2018-11-23T11:00:17.791Z,0.20
2018-11-23T11:02:52.057Z,0.30
2018-11-23T11:05:25.911Z,0.30
2018-11-23T11:07:54.916Z,0.30
2018-11-23T11:10:23.352Z,0.40
2018-11-23T11:12:52.229Z,0.30
2018-11-23T11:15:20.872Z,0.30
2018-11-23T11:17:49.285Z,0.40
2018-11-23T11:20:18.241Z,0.50
2018-11-23T11:22:46.698Z,0.40
2018-11-23T11:25:15.145Z,0.50
2018-11-23T11:27:43.496Z,0.50
2018-11-23T11:30:14.544Z,0.60
2018-11-23T11:32:43.264Z,0.50
2018-11-23T11:35:12.292Z,0.60
2018-11-23T11:37:41.076Z,0.60
2018-11-23T11:40:11.832Z,0.60
2018-11-23T14:05:32.075Z,1.00
2018-11-23T14:08:01.689Z,1.00
2018-11-23T14:10:30.796Z,1.00
2018-11-23T14:12:59.297Z,0.90
2018-11-23T14:15:29.184Z,0.80
2018-11-23T14:17:58.737Z,0.80
2018-11-23T14:20:28.091Z,0.90
2018-11-23T14:22:56.467Z,0.90
2018-11-23T14:25:26.313Z,0.90
2018-11-23T14:27:55.334Z,0.90
2018-11-23T14:30:25.341Z,0.90
2018-11-23T14:32:54.079Z,0.90
2018-11-23T14:35:23.942Z,1.00
2018-11-23T14:37:53.496Z,0.90
2018-11-23T14:40:22.154Z,0.90
2018-11-23T14:42:50.910Z,0.90
2018-11-23T14:45:22.080Z,0.90
2018-11-23T14:47:51.365Z,1.00
2018-11-23T14:50:21.293Z,0.90
2018-11-23T14:52:50.684Z,1.00
2018-11-23T14:55:19.467Z,0.90
2018-11-23T14:57:48.058Z,1.00
2018-11-23T15:00:20.962Z,1.00
2018-11-23T15:02:50.743Z,1.00
2018-11-23T15:05:19.715Z,1.10
2018-11-23T15:07:48.527Z,1.00
2018-11-23T15:10:18.350Z,1.10
2018-11-23T15:12:47.835Z,1.10
2018-11-23T15:15:20.711Z,1.10
2018-11-23T15:17:49.935Z,1.10
2018-11-23T15:20:21.061Z,1.10
2018-11-23T15:22:52.204Z,1.10
2018-11-23T15:25:20.602Z,1.10
2018-11-23T15:27:48.974Z,1.10
2018-11-23T15:30:21.029Z,1.20
2018-11-23T15:32:49.585Z,1.10
2018-11-23T15:35:18.187Z,1.10
2018-11-23T15:37:46.716Z,1.10
2018-11-23T15:40:17.604Z,1.10
2018-11-23T15:42:46.589Z,1.20
2018-11-23T15:45:19.678Z,1.20
2018-11-23T15:47:48.124Z,1.20
2018-11-23T15:50:18.989Z,1.20
2018-11-23T15:52:47.753Z,1.20
2018-11-23T15:55:18.897Z,1.20
2018-11-23T15:57:48.142Z,1.20
2018-11-23T16:00:20.210Z,1.20
2018-11-23T16:02:49.161Z,1.20
2018-11-23T16:05:17.904Z,1.30
2018-11-23T16:07:46.845Z,1.20
2018-11-23T16:10:17.826Z,1.30
2018-11-23T16:12:47.966Z,1.30
2018-11-23T16:15:16.901Z,1.30
2018-11-23T16:17:45.358Z,1.30
2018-11-23T16:20:20.529Z,1.30
2018-11-23T16:22:50.323Z,1.40
2018-11-23T16:25:18.904Z,1.40
2018-11-23T16:27:48.889Z,1.40
2018-11-23T16:30:20.691Z,1.40
2018-11-23T16:32:50.357Z,1.50
2018-11-23T16:35:21.212Z,1.50
2018-11-23T16:37:50.011Z,1.50
2018-11-23T16:40:20.205Z,1.50
2018-11-23T16:42:48.728Z,1.50
2018-11-23T16:45:20.927Z,1.50
2018-11-23T16:47:49.881Z,1.50
2018-11-23T16:50:18.281Z,1.50
2018-11-23T16:52:47.964Z,1.50
2018-11-23T16:55:17.418Z,1.50
2018-11-23T16:57:47.472Z,1.50
2018-11-23T17:00:18.357Z,1.50
2018-11-23T17:02:46.861Z,1.50
2018-11-23T17:05:16.704Z,1.50
2018-11-23T17:07:45.143Z,1.50
2018-11-23T17:10:14.852Z,1.50
2018-11-23T17:12:43.688Z,1.50
2018-11-23T17:15:13.980Z,1.50
2018-11-23T17:17:42.741Z,1.50
2018-11-23T17:20:14.452Z,1.50
2018-11-23T17:22:44.036Z,1.50
2018-11-23T17:25:13.848Z,1.50
2018-11-23T17:27:42.560Z,1.50
2018-11-23T17:30:13.149Z,1.50
2018-11-23T17:32:41.866Z,1.50
2018-11-23T17:35:11.061Z,1.50
2018-11-23T17:37:40.028Z,1.50
2018-11-23T17:40:11.081Z,1.50
2018-11-23T17:42:39.481Z,1.50
2018-11-23T17:45:10.833Z,1.50
2018-11-23T17:47:39.475Z,1.50
2018-11-23T17:50:10.733Z,1.50
2018-11-23T17:52:39.128Z,1.50
2018-11-23T17:55:08.525Z,1.50
2018-11-23T17:57:37.057Z,1.50
2018-11-23T18:00:09.642Z,1.40
2018-11-23T18:02:38.108Z,1.40
2018-11-23T18:05:08.321Z,1.40
2018-11-23T18:07:36.874Z,1.50
2018-11-23T18:10:08.502Z,1.40
2018-11-23T18:12:36.963Z,1.40
2018-11-23T18:15:07.785Z,1.40
2018-11-23T18:17:36.220Z,1.40
2018-11-23T18:20:07.216Z,1.40
2018-11-23T18:22:35.641Z,1.40
2018-11-23T18:25:04.405Z,1.40
2018-11-23T18:27:33.614Z,1.40
2018-11-23T18:30:01.346Z,1.40
2018-11-23T18:32:29.813Z,1.50
2018-11-23T18:34:58.194Z,1.40
2018-11-23T18:37:26.644Z,1.40
2018-11-23T18:39:55.091Z,1.40
2018-11-23T18:42:23.545Z,1.40
2018-11-23T18:44:51.970Z,1.40
2018-11-23T18:47:20.377Z,1.40
2018-11-23T18:49:48.756Z,1.40
2018-11-23T18:52:17.200Z,1.40
2018-11-23T18:54:45.673Z,1.40
2018-11-23T18:57:14.092Z,1.40
2018-11-23T18:59:42.534Z,1.40
2018-11-23T19:02:10.944Z,1.40
2018-11-23T19:04:39.404Z,1.40
2018-11-23T19:07:08.667Z,1.30
2018-11-23T19:09:36.375Z,1.30
2018-11-23T19:12:04.892Z,1.30
2018-11-23T19:14:33.312Z,1.30
2018-11-23T19:17:01.703Z,1.40
2018-11-23T19:19:30.144Z,1.40
2018-11-23T19:21:58.565Z,1.40
2018-11-23T19:24:26.960Z,1.40
2018-11-23T19:26:55.354Z,1.30
2018-11-23T19:29:23.790Z,1.30
2018-11-23T19:31:52.256Z,1.30
2018-11-23T19:34:20.664Z,1.30
2018-11-23T19:36:49.102Z,1.30
2018-11-23T19:39:17.561Z,1.30
2018-11-23T19:41:46.003Z,1.30
2018-11-23T19:44:14.461Z,1.40
2018-11-23T19:46:42.982Z,1.30
2018-11-23T19:49:11.419Z,1.30
2018-11-23T19:51:39.829Z,1.30
2018-11-23T19:54:08.351Z,1.30
2018-11-23T19:56:36.923Z,1.30
2018-11-23T19:59:05.397Z,1.30
2018-11-23T20:01:33.852Z,1.30
2018-11-23T20:04:02.322Z,1.30
2018-11-23T20:06:30.742Z,1.30
2018-11-23T20:08:59.158Z,1.20
2018-11-23T20:11:27.612Z,1.20
2018-11-23T20:13:56.085Z,1.20
2018-11-23T20:16:24.528Z,1.20
2018-11-23T20:18:52.989Z,1.20
2018-11-23T20:21:21.531Z,1.20
2018-11-23T20:23:49.969Z,1.20
2018-11-23T20:26:18.358Z,1.20
2018-11-23T20:28:46.763Z,1.20
2018-11-23T20:31:15.174Z,1.20
2018-11-23T20:33:43.613Z,1.20
2018-11-23T20:36:12.070Z,1.20
2018-11-23T20:38:40.532Z,1.20
2018-11-23T20:41:09.172Z,1.20
2018-11-23T20:43:37.630Z,1.20
2018-11-23T20:46:06.122Z,1.20
2018-11-23T20:48:34.699Z,1.20
2018-11-23T20:51:03.188Z,1.20
2018-11-23T20:53:31.633Z,1.20
2018-11-23T20:56:00.109Z,1.20
2018-11-23T20:58:28.598Z,1.20
2018-11-23T21:00:57.027Z,1.20
2018-11-23T21:03:25.480Z,1.20
2018-11-23T21:05:53.936Z,1.20
2018-11-23T21:08:22.376Z,1.10
2018-11-23T21:10:50.961Z,1.10
2018-11-23T21:13:19.376Z,1.10
2018-11-23T21:15:47.923Z,1.20
2018-11-23T21:18:16.578Z,1.20
2018-11-23T21:20:45.145Z,1.10
2018-11-23T21:23:13.568Z,1.10
2018-11-23T21:25:41.977Z,1.10
2018-11-23T21:28:11.469Z,1.10
2018-11-23T21:30:39.883Z,1.10
2018-11-23T21:33:08.320Z,1.10
2018-11-23T21:35:36.788Z,1.10
2018-11-23T21:38:05.437Z,1.10
2018-11-23T21:40:34.017Z,1.10
2018-11-23T21:43:02.422Z,1.10
2018-11-23T21:45:30.857Z,1.10
2018-11-23T21:47:59.315Z,1.10
2018-11-23T21:50:27.724Z,1.10
2018-11-23T21:52:56.255Z,1.10
2018-11-23T21:55:25.355Z,1.20
2018-11-23T21:57:54.944Z,1.20
2018-11-23T22:00:23.421Z,1.20
2018-11-23T22:02:51.890Z,1.20
2018-11-23T22:05:20.365Z,1.20
2018-11-23T22:07:48.813Z,1.20
2018-11-23T22:10:19.218Z,1.20
2018-11-23T22:12:47.801Z,1.20
2018-11-23T22:15:21.466Z,1.20
2018-11-23T22:17:50.669Z,1.10
2018-11-23T22:20:20.276Z,1.20
2018-11-23T22:22:48.717Z,1.20
2018-11-23T22:25:18.213Z,1.20
2018-11-23T22:27:46.652Z,1.20
2018-11-23T22:30:19.456Z,1.10
2018-11-23T22:32:47.894Z,1.10
2018-11-23T22:35:16.353Z,1.10
2018-11-23T22:37:44.840Z,1.10
2018-11-23T22:40:14.459Z,1.10
2018-11-23T22:42:44.357Z,1.10
2018-11-23T22:45:13.788Z,1.10
2018-11-23T22:47:42.351Z,1.10
2018-11-23T22:50:13.246Z,1.10
2018-11-23T22:52:41.646Z,1.20
2018-11-23T22:55:11.258Z,1.20
2018-11-23T22:57:39.690Z,1.20
2018-11-23T23:00:21.257Z,1.20
2018-11-23T23:02:50.347Z,1.20
2018-11-23T23:05:20.017Z,1.10
2018-11-23T23:07:48.573Z,1.20
2018-11-23T23:10:16.973Z,1.20
2018-11-23T23:12:45.412Z,1.20
2018-11-23T23:15:13.824Z,1.20
2018-11-23T23:17:42.636Z,1.20
2018-11-23T23:20:16.982Z,1.20
2018-11-23T23:22:45.543Z,1.20
2018-11-23T23:25:14.170Z,1.20
2018-11-23T23:27:42.560Z,1.20
2018-11-23T23:30:14.162Z,1.20
2018-11-23T23:32:42.706Z,1.20
2018-11-23T23:35:12.368Z,1.30
2018-11-23T23:37:41.193Z,1.30
2018-11-23T23:40:14.624Z,1.30
2018-11-23T23:42:43.074Z,1.30
2018-11-23T23:45:13.539Z,1.30
2018-11-23T23:47:41.950Z,1.30
2018-11-23T23:50:15.532Z,1.40
2018-11-23T23:52:43.928Z,1.30
2018-11-23T23:55:12.397Z,1.30
2018-11-23T23:57:42.080Z,1.30
